Aérodrome :
LOGIN :

S'inscrire | Disclaimer

   EN    FR    IT 

 










Légende :    VFR   VFR Marginal   IFR   IFR Intensif   IFR Très Intensif
Visi : 
Plafond : 
>= 8 km
>= 3000ft
5 à 8 km
1000 à 3000 ft
1500m à 5 km
500 à 1000 ft
800 à 1500m
200 à 500 ft
< 800m
< 200 ft
Symboles :   Orages  Brouillard  Fortes neiges  Fortes précipitations  Vent > 20 kt
SIGMETs :   Divers  Orages  Givrage  Turbulence  Onde Orograph.  Cendres Volcan.






- Altitude de l'aérodrome : 17 ft
- Code IATA : CPH


EKCH - København - Kastrup (Copenhagen)

DERNIER METAR :
  • 071350Z AUTO 33011KT 290V360 9999 NCD 15/M00 Q1031 NOSIG

METARs EXPIRÉS :
  • 071320Z AUTO 33013KT 290V350 9999 NCD 15/01 Q1031 NOSIG
  • 071250Z AUTO 33015KT 9999 NCD 15/02 Q1031 NOSIG
  • 071220Z AUTO 34012KT 300V360 9999 NCD 15/04 Q1031 NOSIG
  • 071150Z AUTO 33013KT 9999 NCD 14/04 Q1030 NOSIG
  • 071120Z AUTO 29012KT 270V340 9999 NCD 14/05 Q1030 NOSIG

TAF TAF EKCH
Valide du 07 à 12h jusqu'au 08 à 12h UTC


071057Z 0712/0812 30015KT CAVOK
BECMG 0716/0719 VRB03KT
BECMG 0805/0808 17010KT



MET'MAP, la Météo Aéronautique d'un coup d'oeil ! - Copyright ORBIFLY Décembre 2007 - Disclaimer

ORBIFLY MET'MAP TEAM :

Programmation & Développement : Alexandra Zaïnal
Sur une idée originale de : Baudouin d'Aumeries
Assistance à la programmation : Marc-Olivier Méhu
Soutien technique & logistique : Manuel Goepfert

Contact : metmap@orbifly.com




SOURCES & CREDITS :

   NOAA